Time;durP1;ratioP1;P1;durP2;ratioP2;P2;SDS_P1;SDS_P2;PMS_P1;PMS_P2;Temp;Humidity;BMP_temperature;BMP_pressure;BME280_temperature;BME280_humidity;BME280_pressure;Samples;Min_cycle;Max_cycle;Signal;HPM_P1;HPM_P2
2022/07/15 00:00:56;;;;;;;5.80;1.23;;;14.90;90.20;;;;;;5183858;28;20602;-45
2022/07/15 00:03:26;;;;;;;1.07;0.83;;;14.90;91.70;;;;;;5186092;28;20176;-44
2022/07/15 00:05:57;;;;;;;3.60;1.00;;;14.80;92.90;;;;;;5181070;28;20176;-45
2022/07/15 00:08:28;;;;;;;1.53;1.00;;;14.80;94.40;;;;;;5181564;28;20197;-44
2022/07/15 00:10:59;;;;;;;1.40;0.93;;;14.70;95.60;;;;;;5178395;28;20173;-48
2022/07/15 00:13:31;;;;;;;3.30;1.27;;;14.70;96.20;;;;;;5183621;28;20185;-46
2022/07/15 00:16:02;;;;;;;0.97;0.97;;;14.70;97.00;;;;;;5181703;28;20180;-46
2022/07/15 00:18:32;;;;;;;0.80;0.80;;;14.70;97.40;;;;;;5180811;28;20510;-44
2022/07/15 00:21:03;;;;;;;1.13;0.80;;;14.60;98.00;;;;;;5191146;28;20261;-44
2022/07/15 00:23:34;;;;;;;4.63;1.00;;;14.60;98.80;;;;;;5163303;28;20177;-45
2022/07/15 00:26:04;;;;;;;1.37;1.10;;;14.50;99.30;;;;;;5162589;28;20172;-46
2022/07/15 00:28:35;;;;;;;1.03;0.83;;;14.50;99.50;;;;;;5180552;28;20197;-44
2022/07/15 00:31:06;;;;;;;2.00;1.10;;;14.50;99.90;;;;;;5180917;28;20573;-44
2022/07/15 00:33:37;;;;;;;4.63;1.50;;;14.50;99.90;;;;;;5179486;28;20439;-45
2022/07/15 00:36:07;;;;;;;1.83;1.13;;;14.50;99.90;;;;;;5181649;28;20184;-55
2022/07/15 00:38:38;;;;;;;2.07;0.80;;;14.50;99.90;;;;;;5181876;28;20260;-45
2022/07/15 00:41:08;;;;;;;1.87;1.13;;;14.50;99.90;;;;;;5184310;28;20624;-47
2022/07/15 00:43:40;;;;;;;1.50;1.17;;;14.40;99.90;;;;;;5185966;28;20250;-47
2022/07/15 00:46:15;;;;;;;2.00;1.23;;;14.40;99.90;;;;;;5183910;28;20360;-46
2022/07/15 00:48:47;;;;;;;2.60;1.17;;;14.40;99.90;;;;;;5183241;28;20450;-46
2022/07/15 00:51:17;;;;;;;2.87;1.33;;;14.30;99.90;;;;;;5185569;28;20435;-45
2022/07/15 00:53:49;;;;;;;1.00;0.90;;;14.30;99.90;;;;;;5184626;28;20446;-45
2022/07/15 00:56:22;;;;;;;4.60;1.30;;;14.20;99.90;;;;;;5179767;28;20551;-47
2022/07/15 00:58:53;;;;;;;1.03;1.00;;;14.10;99.90;;;;;;5183805;28;20569;-45
2022/07/15 01:01:24;;;;;;;3.13;1.20;;;14.10;99.90;;;;;;5173058;28;20526;-45
2022/07/15 01:03:56;;;;;;;2.20;0.90;;;14.10;99.90;;;;;;5171788;28;20208;-45
2022/07/15 01:06:28;;;;;;;3.90;1.03;;;14.10;99.90;;;;;;5183020;28;20193;-46
2022/07/15 01:08:59;;;;;;;2.43;1.33;;;14.00;99.90;;;;;;5181782;28;20459;-47
2022/07/15 01:11:30;;;;;;;1.53;1.07;;;14.10;99.90;;;;;;5176486;28;20444;-45
2022/07/15 01:14:02;;;;;;;3.60;1.03;;;14.00;99.90;;;;;;5173855;28;20438;-45
2022/07/15 01:16:33;;;;;;;3.17;1.10;;;14.00;99.90;;;;;;5173964;28;20189;-44
2022/07/15 01:19:04;;;;;;;2.87;1.07;;;13.90;99.90;;;;;;5180148;28;20496;-45
2022/07/15 01:21:35;;;;;;;2.10;0.80;;;13.90;99.90;;;;;;5184724;28;20235;-47
2022/07/15 01:24:06;;;;;;;1.63;1.10;;;13.90;99.90;;;;;;5186131;28;20886;-44
2022/07/15 01:26:37;;;;;;;7.20;0.97;;;13.90;99.90;;;;;;5163463;28;20200;-44
2022/07/15 01:29:07;;;;;;;12.87;1.17;;;13.90;99.90;;;;;;5178893;28;20204;-46
2022/07/15 01:31:39;;;;;;;10.83;1.70;;;13.80;99.90;;;;;;5177318;28;20432;-48
2022/07/15 01:34:09;;;;;;;0.90;0.90;;;13.80;99.90;;;;;;5178118;28;20184;-46
2022/07/15 01:36:40;;;;;;;3.13;0.90;;;13.70;99.90;;;;;;5193849;28;20571;-46
2022/07/15 01:39:11;;;;;;;8.80;1.30;;;13.70;99.90;;;;;;5177960;28;20228;-44
2022/07/15 01:41:42;;;;;;;0.87;0.87;;;13.60;99.90;;;;;;5175486;28;20551;-45
2022/07/15 01:44:14;;;;;;;1.13;1.03;;;13.60;99.90;;;;;;5178756;28;20213;-45
2022/07/15 01:46:44;;;;;;;2.00;1.40;;;13.50;99.90;;;;;;5176762;28;20539;-46
2022/07/15 01:49:31;;;;;;;4.10;1.27;;;13.50;99.90;;;;;;5172826;28;20463;-46
2022/07/15 01:52:03;;;;;;;2.30;1.00;;;13.50;99.90;;;;;;5178174;28;20848;-47
2022/07/15 01:54:34;;;;;;;1.47;0.87;;;13.40;99.90;;;;;;5167732;28;20450;-44
2022/07/15 01:57:05;;;;;;;2.47;1.20;;;13.40;99.90;;;;;;5182435;28;20538;-44
2022/07/15 01:59:35;;;;;;;1.67;1.20;;;13.40;99.90;;;;;;5181280;28;20731;-47
2022/07/15 02:02:06;;;;;;;6.80;1.40;;;13.40;99.90;;;;;;5179250;28;20283;-48
2022/07/15 02:04:36;;;;;;;3.77;1.20;;;13.40;99.90;;;;;;5175512;28;20243;-50
2022/07/15 02:07:07;;;;;;;6.57;2.73;;;13.40;99.90;;;;;;5176530;28;20195;-44
2022/07/15 02:09:38;;;;;;;11.53;1.80;;;13.40;99.90;;;;;;5178848;28;20677;-45
2022/07/15 02:12:09;;;;;;;1.37;0.90;;;13.30;99.90;;;;;;5171465;28;20394;-44
2022/07/15 02:14:39;;;;;;;10.13;1.20;;;13.30;99.90;;;;;;5183123;28;20196;-45
2022/07/15 02:17:10;;;;;;;2.20;1.53;;;13.30;99.90;;;;;;5177920;28;20190;-44
2022/07/15 02:19:40;;;;;;;2.20;1.20;;;13.30;99.90;;;;;;5180881;28;20680;-44
2022/07/15 02:22:11;;;;;;;4.70;1.20;;;13.20;99.90;;;;;;5183508;28;20412;-45
2022/07/15 02:24:42;;;;;;;6.17;1.20;;;13.20;99.90;;;;;;5179364;28;20787;-45
2022/07/15 02:27:12;;;;;;;10.97;2.07;;;13.20;99.90;;;;;;5182673;28;20207;-45
2022/07/15 02:29:43;;;;;;;5.33;1.47;;;13.10;99.90;;;;;;5181287;28;20297;-45
2022/07/15 02:32:13;;;;;;;6.93;1.43;;;13.20;99.90;;;;;;5174696;28;20184;-45
2022/07/15 02:34:44;;;;;;;6.60;1.80;;;13.10;99.90;;;;;;5180316;28;20245;-45
2022/07/15 02:37:15;;;;;;;15.23;2.77;;;13.10;99.90;;;;;;5180831;28;20195;-45
2022/07/15 02:39:45;;;;;;;6.07;1.83;;;13.10;99.90;;;;;;5181773;28;20211;-45
2022/07/15 02:42:16;;;;;;;5.80;0.90;;;13.10;99.90;;;;;;5173453;28;20188;-50
2022/07/15 02:44:47;;;;;;;12.33;1.80;;;13.10;99.90;;;;;;5182811;28;20239;-46
2022/07/15 02:47:18;;;;;;;3.67;1.47;;;13.10;99.90;;;;;;5179146;28;20616;-45
2022/07/15 02:49:49;;;;;;;6.00;1.80;;;13.00;99.90;;;;;;5184861;28;20534;-45
2022/07/15 02:52:19;;;;;;;2.33;1.33;;;13.00;99.90;;;;;;5182265;28;20180;-46
2022/07/15 02:54:50;;;;;;;5.50;1.47;;;13.00;99.90;;;;;;5178774;28;20190;-46
2022/07/15 02:57:21;;;;;;;4.47;1.60;;;12.90;99.90;;;;;;5181152;28;20180;-45
2022/07/15 02:59:51;;;;;;;4.57;1.60;;;13.00;99.90;;;;;;5174826;28;20212;-44
2022/07/15 03:02:22;;;;;;;5.00;1.70;;;12.90;99.90;;;;;;5173418;28;20697;-46
2022/07/15 03:04:53;;;;;;;11.60;1.83;;;12.90;99.90;;;;;;5178766;28;20300;-46
2022/07/15 03:07:24;;;;;;;5.53;1.70;;;12.90;99.90;;;;;;5181280;28;20187;-45
2022/07/15 03:09:55;;;;;;;9.57;2.27;;;12.90;99.90;;;;;;5187928;28;20218;-45
2022/07/15 03:12:26;;;;;;;2.53;1.20;;;12.90;99.90;;;;;;5175879;28;20530;-46
2022/07/15 03:14:56;;;;;;;3.97;1.57;;;12.90;99.90;;;;;;5180334;28;20534;-45
2022/07/15 03:17:27;;;;;;;3.33;1.50;;;12.90;99.90;;;;;;5178710;28;20177;-46
2022/07/15 03:19:58;;;;;;;3.67;1.47;;;12.90;99.90;;;;;;5187298;28;20228;-46
2022/07/15 03:22:29;;;;;;;14.97;1.77;;;12.90;99.90;;;;;;5185155;28;21186;-50
2022/07/15 03:24:59;;;;;;;4.10;1.70;;;13.00;99.90;;;;;;5183792;28;20231;-46
2022/07/15 03:27:30;;;;;;;4.87;1.87;;;12.90;99.90;;;;;;5187773;28;20641;-45
2022/07/15 03:30:01;;;;;;;7.10;1.87;;;12.90;99.90;;;;;;5187419;28;20176;-44
2022/07/15 03:32:31;;;;;;;12.13;2.03;;;12.90;99.90;;;;;;5184907;28;20176;-45
2022/07/15 03:35:02;;;;;;;3.63;1.83;;;12.90;99.90;;;;;;5185045;28;20191;-44
2022/07/15 03:37:34;;;;;;;6.93;2.00;;;12.90;99.90;;;;;;5183196;28;20222;-46
2022/07/15 03:40:05;;;;;;;5.23;1.83;;;12.90;99.90;;;;;;5186615;23;20231;-47
2022/07/15 03:42:36;;;;;;;2.60;1.73;;;12.90;99.90;;;;;;5177673;28;20482;-47
2022/07/15 03:45:07;;;;;;;6.97;1.60;;;12.90;99.90;;;;;;5171744;28;20464;-47
2022/07/15 03:47:38;;;;;;;5.87;1.53;;;12.90;99.90;;;;;;5174259;28;20235;-47
2022/07/15 03:50:09;;;;;;;7.30;2.27;;;13.00;99.90;;;;;;5159782;28;20479;-47
2022/07/15 03:52:39;;;;;;;5.70;1.80;;;13.00;99.90;;;;;;5158042;28;20182;-47
2022/07/15 03:55:10;;;;;;;5.03;2.00;;;13.00;99.90;;;;;;5157594;28;20189;-48
2022/07/15 03:57:41;;;;;;;5.83;1.80;;;13.10;99.90;;;;;;5160173;28;20268;-48
2022/07/15 04:00:12;;;;;;;8.03;1.77;;;13.10;99.90;;;;;;5159894;28;21532;-47
2022/07/15 04:02:42;;;;;;;5.80;1.83;;;13.20;99.90;;;;;;5155390;28;20219;-46
2022/07/15 04:05:13;;;;;;;13.27;1.80;;;13.40;99.90;;;;;;5160293;28;20463;-47
2022/07/15 04:07:44;;;;;;;4.33;1.70;;;13.50;99.90;;;;;;5163816;28;20620;-46
2022/07/15 04:10:15;;;;;;;7.27;1.80;;;13.60;99.90;;;;;;5147584;28;20743;-47
2022/07/15 04:12:45;;;;;;;2.23;1.37;;;13.80;99.90;;;;;;5152881;28;20267;-48
2022/07/15 04:15:16;;;;;;;2.93;1.20;;;13.90;99.90;;;;;;5152748;28;20239;-47
2022/07/15 04:17:46;;;;;;;3.40;1.53;;;14.00;99.90;;;;;;5150462;28;20231;-47
2022/07/15 04:20:17;;;;;;;3.00;1.67;;;14.10;99.90;;;;;;5145208;28;20205;-48
2022/07/15 04:22:48;;;;;;;5.83;1.77;;;14.30;99.90;;;;;;5170167;28;20189;-47
2022/07/15 04:25:20;;;;;;;6.50;1.67;;;14.30;99.90;;;;;;5168846;28;20205;-47
2022/07/15 04:27:51;;;;;;;5.53;1.53;;;14.30;99.90;;;;;;5154692;28;20197;-48
2022/07/15 04:30:21;;;;;;;1.43;1.20;;;14.40;99.90;;;;;;5161767;28;20442;-47
2022/07/15 04:32:52;;;;;;;6.73;2.20;;;14.40;99.90;;;;;;5161914;28;20248;-47
2022/07/15 04:35:23;;;;;;;8.30;2.43;;;14.40;99.90;;;;;;5154976;28;20185;-48
2022/07/15 04:37:53;;;;;;;7.70;1.90;;;14.50;99.90;;;;;;5152550;28;20606;-47
2022/07/15 04:40:24;;;;;;;8.07;2.13;;;14.40;99.90;;;;;;5109057;28;1470607;-47
2022/07/15 04:42:55;;;;;;;4.83;1.47;;;14.50;99.90;;;;;;5146439;28;20186;-47
2022/07/15 04:45:26;;;;;;;3.70;1.53;;;14.50;99.90;;;;;;5155869;28;20205;-47
2022/07/15 04:47:56;;;;;;;4.10;2.40;;;14.60;99.90;;;;;;5148544;28;20189;-47
2022/07/15 04:50:45;;;;;;;3.57;1.33;;;14.70;99.90;;;;;;5157653;28;20806;-47
2022/07/15 04:53:16;;;;;;;5.00;1.93;;;14.80;99.90;;;;;;5153326;28;20207;-47
2022/07/15 04:55:47;;;;;;;9.83;1.73;;;15.20;99.90;;;;;;5160458;28;20454;-47
2022/07/15 04:58:18;;;;;;;3.20;1.57;;;15.70;99.90;;;;;;5156182;28;20238;-48
2022/07/15 05:00:48;;;;;;;3.40;1.43;;;15.90;99.90;;;;;;5153426;28;20436;-48
2022/07/15 05:03:19;;;;;;;2.20;1.37;;;16.00;99.90;;;;;;5146660;28;20284;-47
2022/07/15 05:05:49;;;;;;;7.50;1.70;;;16.00;99.90;;;;;;5157168;28;20345;-47
2022/07/15 05:08:20;;;;;;;2.87;1.77;;;15.90;99.90;;;;;;5154286;28;20312;-46
2022/07/15 05:10:51;;;;;;;3.27;1.20;;;15.90;99.90;;;;;;5160174;28;20199;-47
2022/07/15 05:13:21;;;;;;;3.50;1.10;;;16.10;99.90;;;;;;5156997;28;20185;-47
2022/07/15 05:15:52;;;;;;;5.83;1.87;;;16.40;99.90;;;;;;5159954;28;20192;-47
2022/07/15 05:18:23;;;;;;;6.90;1.40;;;16.90;99.80;;;;;;5160467;28;20249;-47
2022/07/15 05:20:53;;;;;;;3.03;1.10;;;17.00;98.80;;;;;;5156276;28;20259;-48
2022/07/15 05:23:24;;;;;;;4.27;1.57;;;16.80;99.20;;;;;;5161179;28;20650;-48
2022/07/15 05:25:54;;;;;;;5.53;2.37;;;18.20;96.00;;;;;;5164601;28;20214;-48
2022/07/15 05:28:25;;;;;;;3.30;1.23;;;19.90;88.50;;;;;;5163475;28;20220;-47
2022/07/15 05:30:56;;;;;;;2.37;1.30;;;20.70;77.60;;;;;;5153117;28;20237;-48
2022/07/15 05:33:26;;;;;;;8.77;2.03;;;20.50;73.80;;;;;;5153752;28;20177;-48
2022/07/15 05:35:57;;;;;;;3.07;1.10;;;21.80;68.10;;;;;;5149523;28;20190;-48
2022/07/15 05:38:27;;;;;;;2.47;1.00;;;23.00;61.50;;;;;;5160102;28;20328;-48
2022/07/15 05:40:58;;;;;;;5.93;1.90;;;24.20;54.90;;;;;;5158438;28;20244;-48
2022/07/15 05:43:28;;;;;;;5.00;1.33;;;24.90;52.00;;;;;;5158209;28;20197;-48
2022/07/15 05:45:59;;;;;;;2.10;1.13;;;25.20;49.30;;;;;;5152146;28;20578;-49
2022/07/15 05:48:30;;;;;;;1.40;1.03;;;25.70;47.80;;;;;;5157724;28;20197;-49
2022/07/15 05:51:01;;;;;;;5.07;1.40;;;25.20;46.60;;;;;;5150405;28;20182;-48
2022/07/15 05:53:32;;;;;;;2.93;1.60;;;24.00;48.40;;;;;;5153710;28;20440;-48
2022/07/15 05:56:02;;;;;;;1.57;1.03;;;24.00;47.80;;;;;;5161066;28;20441;-49
2022/07/15 05:58:34;;;;;;;4.63;1.23;;;24.00;47.70;;;;;;5152157;28;20578;-49
2022/07/15 06:01:05;;;;;;;3.50;1.03;;;24.40;47.10;;;;;;5159720;28;20243;-48
2022/07/15 06:03:36;;;;;;;3.03;1.03;;;23.70;48.50;;;;;;5158710;28;20527;-47
2022/07/15 06:06:07;;;;;;;5.50;1.23;;;23.00;49.20;;;;;;5162674;28;20189;-47
2022/07/15 06:08:38;;;;;;;6.93;1.30;;;23.00;49.90;;;;;;5157082;28;20207;-49
2022/07/15 06:11:11;;;;;;;7.40;1.50;;;22.80;49.00;;;;;;5158538;28;20789;-49
2022/07/15 06:13:42;;;;;;;1.57;1.17;;;21.60;50.50;;;;;;5160771;28;20189;-48
2022/07/15 06:16:13;;;;;;;6.57;1.27;;;20.90;52.00;;;;;;5162867;28;20434;-47
2022/07/15 06:18:43;;;;;;;16.43;1.80;;;20.20;53.50;;;;;;5161610;28;20200;-48
2022/07/15 06:21:14;;;;;;;5.13;1.60;;;19.90;54.90;;;;;;5161868;28;20497;-48
2022/07/15 06:23:45;;;;;;;2.73;1.20;;;19.50;56.30;;;;;;5159041;28;20193;-48
2022/07/15 06:26:15;;;;;;;7.27;1.30;;;19.50;57.00;;;;;;5150063;28;20282;-48
2022/07/15 06:28:46;;;;;;;8.80;1.53;;;19.60;56.60;;;;;;5153034;28;20205;-48
2022/07/15 06:31:16;;;;;;;5.13;1.50;;;19.60;56.70;;;;;;5150675;28;20626;-47
2022/07/15 06:33:47;;;;;;;1.90;1.10;;;19.80;56.50;;;;;;5145048;28;20197;-49
2022/07/15 06:36:17;;;;;;;3.80;1.33;;;19.60;56.50;;;;;;5156585;28;20189;-48
2022/07/15 06:38:49;;;;;;;1.53;1.10;;;19.10;57.60;;;;;;5158862;28;20593;-48
2022/07/15 06:41:20;;;;;;;3.90;0.80;;;19.20;58.60;;;;;;5174378;28;20615;-49
2022/07/15 06:43:51;;;;;;;6.50;1.20;;;19.40;58.30;;;;;;5155680;28;20493;-48
2022/07/15 06:46:21;;;;;;;5.00;1.33;;;19.60;58.00;;;;;;5148797;28;20242;-49
2022/07/15 06:48:52;;;;;;;4.03;1.53;;;19.40;58.30;;;;;;5154108;28;20193;-48
2022/07/15 06:51:22;;;;;;;3.97;1.23;;;18.70;59.20;;;;;;5159142;28;20664;-47
2022/07/15 06:53:53;;;;;;;4.87;1.37;;;18.30;60.70;;;;;;5161308;28;20252;-49
2022/07/15 06:56:24;;;;;;;3.33;1.30;;;18.70;61.10;;;;;;5163774;28;20200;-48
2022/07/15 06:58:54;;;;;;;1.70;1.23;;;19.40;59.70;;;;;;5159681;28;20251;-48
2022/07/15 07:01:25;;;;;;;1.90;1.03;;;20.60;57.30;;;;;;5163590;28;20204;-49
2022/07/15 07:03:56;;;;;;;3.73;1.10;;;21.90;54.10;;;;;;5156702;28;20216;-49
2022/07/15 07:06:26;;;;;;;0.80;0.80;;;22.80;51.30;;;;;;5153739;28;20189;-48
2022/07/15 07:08:57;;;;;;;5.10;0.80;;;22.60;50.20;;;;;;5154597;28;20255;-47
2022/07/15 07:11:28;;;;;;;3.53;0.90;;;22.20;51.00;;;;;;5160036;28;20209;-50
2022/07/15 07:13:59;;;;;;;8.80;1.17;;;22.30;51.60;;;;;;5164149;28;20177;-48
2022/07/15 07:16:30;;;;;;;3.07;1.20;;;22.80;49.90;;;;;;5159544;28;20219;-48
2022/07/15 07:19:01;;;;;;;1.20;1.00;;;23.00;48.70;;;;;;5157294;28;20492;-48
2022/07/15 07:21:32;;;;;;;2.87;0.97;;;22.20;49.70;;;;;;5156543;28;20502;-49
2022/07/15 07:24:02;;;;;;;5.40;1.40;;;21.90;50.60;;;;;;5162341;28;20200;-49
2022/07/15 07:26:34;;;;;;;1.73;0.90;;;21.50;51.30;;;;;;5157588;28;20585;-48
2022/07/15 07:29:05;;;;;;;1.07;0.80;;;20.50;52.20;;;;;;5158222;28;20649;-48
2022/07/15 07:31:36;;;;;;;2.40;1.07;;;20.10;53.50;;;;;;5163719;28;20434;-49
2022/07/15 07:34:06;;;;;;;3.23;1.10;;;20.20;53.90;;;;;;5157030;28;20432;-48
2022/07/15 07:36:37;;;;;;;5.90;1.37;;;20.30;53.50;;;;;;5159957;28;20227;-48
2022/07/15 07:39:08;;;;;;;2.63;0.97;;;19.80;53.90;;;;;;5157336;28;20773;-48
2022/07/15 07:41:38;;;;;;;9.07;1.47;;;19.60;54.50;;;;;;5162161;28;20223;-48
2022/07/15 07:44:09;;;;;;;1.33;0.87;;;19.50;55.10;;;;;;5166467;28;20277;-48
2022/07/15 07:46:40;;;;;;;4.97;1.23;;;19.60;55.30;;;;;;5167103;28;20252;-48
2022/07/15 07:49:12;;;;;;;2.93;0.90;;;21.40;53.10;;;;;;5158484;28;20231;-47
2022/07/15 07:51:43;;;;;;;4.00;0.93;;;23.10;50.40;;;;;;5160171;28;20185;-49
2022/07/15 07:54:13;;;;;;;5.17;1.00;;;25.00;45.40;;;;;;5149644;28;20458;-49
2022/07/15 07:56:45;;;;;;;5.10;0.90;;;24.60;44.10;;;;;;5163152;28;20181;-49
2022/07/15 07:59:15;;;;;;;5.43;0.93;;;23.60;46.00;;;;;;5158550;28;20219;-48
2022/07/15 08:01:46;;;;;;;5.00;1.20;;;22.20;47.30;;;;;;5169500;28;20842;-47
2022/07/15 08:04:16;;;;;;;2.60;1.00;;;21.40;48.80;;;;;;5122874;28;20277;-48
2022/07/15 08:06:47;;;;;;;2.93;0.93;;;20.60;50.40;;;;;;5164235;28;20189;-48
2022/07/15 08:09:18;;;;;;;3.73;1.60;;;19.60;52.40;;;;;;5164938;28;20282;-48
2022/07/15 08:11:48;;;;;;;1.13;1.10;;;19.20;51.10;;;;;;5156342;28;20173;-48
2022/07/15 08:14:19;;;;;;;1.43;0.70;;;19.30;51.30;;;;;;5163437;28;20240;-48
2022/07/15 08:16:50;;;;;;;1.83;1.37;;;19.80;50.00;;;;;;5156555;28;20188;-49
2022/07/15 08:19:21;;;;;;;6.67;2.13;;;20.90;48.30;;;;;;5159029;28;20657;-49
2022/07/15 08:21:51;;;;;;;0.77;0.77;;;21.20;47.10;;;;;;5157202;28;20443;-49
2022/07/15 08:24:22;;;;;;;9.70;1.30;;;20.70;48.00;;;;;;5171695;28;24438;-48
2022/07/15 08:26:53;;;;;;;5.33;1.10;;;20.00;48.40;;;;;;5158773;28;20181;-48
2022/07/15 08:29:24;;;;;;;1.20;0.70;;;19.70;49.30;;;;;;5160782;28;20215;-48
2022/07/15 08:31:54;;;;;;;7.90;1.10;;;19.20;49.90;;;;;;5163198;28;20181;-49
2022/07/15 08:34:25;;;;;;;2.80;0.83;;;18.80;50.70;;;;;;5163321;28;20207;-46
2022/07/15 08:36:55;;;;;;;3.07;1.10;;;18.80;50.40;;;;;;5164115;28;20668;-48
2022/07/15 08:39:26;;;;;;;3.37;1.00;;;19.00;50.50;;;;;;5159610;28;20243;-46
2022/07/15 08:41:57;;;;;;;6.23;1.30;;;19.20;50.20;;;;;;5159767;28;20192;-47
2022/07/15 08:44:27;;;;;;;5.70;0.87;;;19.80;49.70;;;;;;5159238;28;20309;-46
2022/07/15 08:47:05;;;;;;;2.20;0.70;;;20.00;48.40;;;;;;5166805;28;20180;-46
2022/07/15 08:49:39;;;;;;;1.57;0.90;;;20.10;48.30;;;;;;5167777;28;20255;-47
2022/07/15 08:52:11;;;;;;;1.03;0.80;;;20.00;47.80;;;;;;5147892;28;20428;-49
2022/07/15 08:54:42;;;;;;;3.40;1.00;;;19.70;47.90;;;;;;5165421;28;20455;-46
2022/07/15 08:57:14;;;;;;;4.27;1.07;;;19.20;49.10;;;;;;5162542;28;20440;-47
2022/07/15 08:59:47;;;;;;;3.30;1.10;;;19.00;49.90;;;;;;5149076;28;20240;-50
2022/07/15 09:02:22;;;;;;;11.63;1.20;;;19.10;50.40;;;;;;5149025;28;20448;-47
2022/07/15 09:05:18;;;;;;;2.83;0.87;;;19.40;49.70;;;;;;5161334;28;20519;-46
2022/07/15 09:08:07;;;;;;;5.10;1.10;;;19.30;49.90;;;;;;5157123;28;20529;-46
2022/07/15 09:10:57;;;;;;;0.67;0.67;;;19.40;50.30;;;;;;5161473;28;20440;-47
2022/07/15 09:13:38;;;;;;;0.87;0.67;;;19.40;51.00;;;;;;5145543;28;20777;-46
2022/07/15 09:16:20;;;;;;;4.33;1.77;;;19.70;50.30;;;;;;5157888;28;20435;-49
2022/07/15 09:18:51;;;;;;;3.00;0.77;;;20.10;50.00;;;;;;5165044;28;20459;-47
2022/07/15 09:21:25;;;;;;;3.00;0.80;;;20.70;49.20;;;;;;5157321;28;20597;-49
2022/07/15 09:24:18;;;;;;;2.60;1.30;;;21.10;47.80;;;;;;5146031;28;20185;-46
2022/07/15 09:26:49;;;;;;;1.87;1.07;;;20.40;47.70;;;;;;5158848;28;20859;-46
2022/07/15 09:40:52;;;;;;;7.23;0.90;;;19.20;50.30;;;;;;5233189;28;20491;-46
2022/07/15 09:43:22;;;;;;;7.97;1.20;;;19.20;50.90;;;;;;5220560;28;20444;-47
2022/07/15 09:45:59;;;;;;;2.20;1.30;;;19.30;51.30;;;;;;5240143;28;20213;-46
2022/07/15 09:48:31;;;;;;;2.73;1.70;;;19.70;51.00;;;;;;5225699;28;20201;-46
2022/07/15 09:51:02;;;;;;;1.80;1.50;;;19.80;49.90;;;;;;5214509;28;20440;-47
2022/07/15 09:53:33;;;;;;;2.93;1.10;;;20.30;49.50;;;;;;5243396;28;20799;-47
2022/07/15 09:56:05;;;;;;;3.27;1.30;;;20.40;49.10;;;;;;5234147;28;20201;-47
2022/07/15 09:58:38;;;;;;;1.67;1.37;;;20.80;48.60;;;;;;5223910;28;20485;-46
2022/07/15 10:01:11;;;;;;;1.47;1.20;;;20.60;47.90;;;;;;5228898;28;20438;-47
2022/07/15 10:03:41;;;;;;;1.43;0.70;;;20.40;48.80;;;;;;5236221;28;20974;-48
2022/07/15 10:06:14;;;;;;;2.20;0.90;;;20.50;48.90;;;;;;5233074;28;20457;-47
2022/07/15 10:08:47;;;;;;;7.27;0.93;;;20.40;48.50;;;;;;5228835;28;20516;-48
2022/07/15 10:11:18;;;;;;;2.63;0.87;;;20.50;47.60;;;;;;5229667;28;20543;-45
2022/07/15 10:14:26;;;;;;;4.83;1.20;;;20.60;47.30;;;;;;5236496;28;20609;-47
2022/07/15 10:17:08;;;;;;;1.67;1.20;;;21.00;47.00;;;;;;5239876;28;20293;-49
2022/07/15 10:19:54;;;;;;;0.93;0.80;;;21.30;46.60;;;;;;5229766;28;20829;-49
2022/07/15 10:22:42;;;;;;;2.43;0.63;;;21.40;46.40;;;;;;5228522;28;20455;-44
2022/07/15 10:25:45;;;;;;;3.60;0.97;;;21.20;46.50;;;;;;5214011;28;20505;-45
2022/07/15 10:28:22;;;;;;;1.37;0.90;;;21.10;46.70;;;;;;5242986;28;20432;-45
2022/07/15 10:31:32;;;;;;;1.23;0.90;;;20.70;46.30;;;;;;5233946;28;20416;-44
2022/07/15 10:34:03;;;;;;;1.47;1.10;;;20.70;46.70;;;;;;5225651;28;20499;-47
2022/07/15 10:36:41;;;;;;;4.00;0.93;;;20.30;46.60;;;;;;5232736;28;20939;-47
2022/07/15 10:39:14;;;;;;;1.37;1.30;;;20.10;47.20;;;;;;5233246;28;20340;-45
2022/07/15 10:41:58;;;;;;;1.73;0.93;;;20.20;46.60;;;;;;5219492;28;20454;-44
2022/07/15 10:44:34;;;;;;;2.10;1.07;;;20.30;46.50;;;;;;5214996;28;20859;-46
2022/07/15 10:47:14;;;;;;;7.30;0.80;;;20.30;47.00;;;;;;5226847;28;20848;-46
2022/07/15 10:49:47;;;;;;;2.93;1.20;;;19.90;47.50;;;;;;5233941;28;20994;-45
2022/07/15 10:52:23;;;;;;;2.73;0.90;;;19.90;48.00;;;;;;5227882;28;20441;-49
2022/07/15 10:55:00;;;;;;;2.90;1.10;;;19.90;48.10;;;;;;5233167;28;20452;-45
2022/07/15 10:57:50;;;;;;;1.00;0.87;;;19.90;48.00;;;;;;5235814;28;20464;-48
2022/07/15 11:00:21;;;;;;;5.13;1.20;;;20.10;47.20;;;;;;5218980;28;20555;-45
2022/07/15 11:03:05;;;;;;;2.63;1.83;;;20.10;46.80;;;;;;5241840;28;20524;-45
2022/07/15 11:05:45;;;;;;;3.87;1.20;;;20.40;45.70;;;;;;5236175;28;20713;-44
2022/07/15 11:08:33;;;;;;;0.90;0.90;;;20.80;45.60;;;;;;5232510;28;20429;-45
2022/07/15 11:11:13;;;;;;;1.43;0.80;;;21.20;45.00;;;;;;5244055;28;20424;-45
2022/07/15 11:13:46;;;;;;;6.93;1.10;;;20.90;45.20;;;;;;5245230;28;20431;-46
2022/07/15 11:16:19;;;;;;;2.93;1.80;;;21.00;45.20;;;;;;5240936;28;20440;-45
2022/07/15 11:18:57;;;;;;;2.67;1.17;;;21.20;45.70;;;;;;5245060;28;20458;-44
2022/07/15 11:21:27;;;;;;;6.90;2.10;;;21.30;45.50;;;;;;5227541;28;20447;-45
2022/07/15 11:23:59;;;;;;;2.03;1.10;;;21.20;45.30;;;;;;5238017;28;20964;-49
2022/07/15 11:26:46;;;;;;;0.77;0.70;;;20.70;44.60;;;;;;5221765;28;20527;-46
2022/07/15 11:29:17;;;;;;;3.10;1.47;;;20.80;45.60;;;;;;5241378;28;20536;-48
2022/07/15 11:31:48;;;;;;;2.97;2.17;;;21.30;45.00;;;;;;5240175;28;20524;-45
2022/07/15 11:34:20;;;;;;;7.73;1.97;;;21.50;44.10;;;;;;5240161;28;20179;-48
2022/07/15 11:37:00;;;;;;;1.13;1.00;;;21.60;43.90;;;;;;5233933;28;20847;-49
2022/07/15 11:39:30;;;;;;;1.70;0.90;;;21.40;43.70;;;;;;5236104;28;20505;-48
2022/07/15 11:44:51;;;;;;;4.80;1.50;;;21.30;44.60;;;;;;5237025;28;20282;-48
2022/07/15 11:47:22;;;;;;;1.27;1.03;;;21.40;44.60;;;;;;5222817;28;20436;-47
2022/07/15 11:50:02;;;;;;;0.93;0.50;;;21.20;44.60;;;;;;5206919;28;20979;-48
2022/07/15 11:52:32;;;;;;;1.70;1.10;;;20.80;45.70;;;;;;5241487;28;20436;-47
2022/07/15 11:55:05;;;;;;;4.90;3.80;;;20.40;46.20;;;;;;5242644;28;20509;-48
2022/07/15 11:57:36;;;;;;;1.77;1.10;;;20.60;46.40;;;;;;5218985;28;20183;-48
2022/07/15 12:00:07;;;;;;;2.60;1.00;;;20.60;46.50;;;;;;5239855;28;20474;-48
2022/07/15 12:02:38;;;;;;;3.07;0.60;;;20.90;46.50;;;;;;5242589;28;20262;-48
2022/07/15 12:05:09;;;;;;;1.90;0.93;;;21.10;45.90;;;;;;5233536;28;20548;-46
2022/07/15 12:07:46;;;;;;;1.57;1.00;;;21.00;46.10;;;;;;5238631;28;20179;-46
2022/07/15 12:10:19;;;;;;;1.47;1.00;;;20.80;46.70;;;;;;5232027;28;20194;-46
2022/07/15 12:12:54;;;;;;;3.90;1.03;;;20.70;46.10;;;;;;5232169;28;20434;-46
2022/07/15 12:15:25;;;;;;;1.13;1.00;;;20.40;46.60;;;;;;5216553;28;20440;-47
2022/07/15 12:17:56;;;;;;;2.10;1.90;;;20.50;46.80;;;;;;5221564;28;20768;-47
2022/07/15 12:20:27;;;;;;;3.03;1.50;;;20.60;46.80;;;;;;5237311;28;20203;-45
2022/07/15 12:23:10;;;;;;;2.83;1.00;;;20.80;46.30;;;;;;5239188;28;20186;-47
2022/07/15 12:25:41;;;;;;;7.13;2.73;;;21.00;45.70;;;;;;5238952;28;20495;-46
2022/07/15 12:28:12;;;;;;;1.53;1.10;;;21.50;45.20;;;;;;5243918;28;20445;-46
2022/07/15 12:30:44;;;;;;;4.77;0.80;;;21.50;44.00;;;;;;5239270;28;20211;-46
2022/07/15 12:33:19;;;;;;;2.77;1.10;;;21.50;44.00;;;;;;5223239;28;20564;-47
2022/07/15 12:36:18;;;;;;;3.70;0.73;;;21.60;43.70;;;;;;5218334;28;20541;-47
2022/07/15 12:39:16;;;;;;;0.50;0.50;;;21.40;43.40;;;;;;5242561;28;20466;-47
2022/07/15 12:42:00;;;;;;;3.00;2.70;;;21.20;43.60;;;;;;5220837;28;20433;-45
2022/07/15 12:44:32;;;;;;;8.60;1.87;;;21.40;44.10;;;;;;5220998;28;20566;-47
2022/07/15 12:47:06;;;;;;;7.60;1.17;;;21.50;43.90;;;;;;5235582;28;20445;-47
2022/07/15 12:49:46;;;;;;;3.40;1.10;;;21.50;43.90;;;;;;5223983;28;20459;-49
2022/07/15 12:52:38;;;;;;;2.13;1.07;;;21.00;43.90;;;;;;5235401;28;20456;-48
2022/07/15 12:55:20;;;;;;;1.37;0.63;;;20.80;45.20;;;;;;5234127;28;20423;-47
2022/07/15 12:57:51;;;;;;;1.83;1.20;;;21.00;45.50;;;;;;5230241;28;20531;-48
2022/07/15 13:00:23;;;;;;;4.10;1.10;;;21.10;45.50;;;;;;5221781;28;20974;-47
2022/07/15 13:03:11;;;;;;;7.10;1.03;;;21.10;45.40;;;;;;5242106;28;20182;-46
2022/07/15 13:05:44;;;;;;;3.23;0.97;;;21.00;45.00;;;;;;5222366;28;20823;-46
2022/07/15 13:08:21;;;;;;;1.33;0.80;;;20.70;45.60;;;;;;5236287;28;20439;-44
2022/07/15 13:10:54;;;;;;;7.43;1.33;;;20.50;45.50;;;;;;5235086;28;20428;-44
2022/07/15 13:13:27;;;;;;;5.00;1.23;;;20.60;46.00;;;;;;5217113;28;20457;-44
2022/07/15 13:15:59;;;;;;;8.90;1.27;;;20.80;45.90;;;;;;5237373;28;20438;-43
2022/07/15 13:18:31;;;;;;;3.40;1.37;;;20.80;44.40;;;;;;5240053;28;20437;-45
2022/07/15 13:21:02;;;;;;;1.63;1.10;;;20.80;44.30;;;;;;5229931;28;20932;-47
2022/07/15 13:23:33;;;;;;;4.30;1.10;;;20.80;45.00;;;;;;5217084;28;20512;-44
2022/07/15 13:26:04;;;;;;;4.83;1.30;;;20.60;45.30;;;;;;5235085;28;20464;-45
2022/07/15 13:28:34;;;;;;;2.53;0.60;;;20.50;45.70;;;;;;5242356;28;20522;-44